Time;durP1;ratioP1;P1;durP2;ratioP2;P2;SDS_P1;SDS_P2;PMS_P1;PMS_P2;Temp;Humidity;BMP_temperature;BMP_pressure;BME280_temperature;BME280_humidity;BME280_pressure;Samples;Min_cycle;Max_cycle;Signal;HPM_P1;HPM_P2
2021/06/19 05:40:34;;;;;;;1.80;1.40;;;20.20;99.90;;;;;;4877683;29;20242;-77
2021/06/19 05:43:01;;;;;;;4.13;1.87;;;20.30;99.90;;;;;;4879746;29;20470;-77
2021/06/19 05:45:28;;;;;;;2.53;1.60;;;20.30;99.90;;;;;;4879862;29;20242;-77
2021/06/19 05:47:54;;;;;;;4.80;1.80;;;20.40;99.90;;;;;;4879432;29;20217;-77
2021/06/19 05:50:21;;;;;;;3.40;1.80;;;20.40;99.90;;;;;;4879283;29;20218;-77
2021/06/19 05:52:48;;;;;;;3.53;1.95;;;20.40;99.90;;;;;;4879655;29;20215;-77
2021/06/19 05:55:15;;;;;;;2.53;1.73;;;20.40;99.90;;;;;;4879212;29;20249;-78
2021/06/19 05:57:43;;;;;;;2.05;1.80;;;20.50;99.90;;;;;;4879573;29;20215;-77
2021/06/19 06:00:11;;;;;;;2.90;1.75;;;20.50;99.90;;;;;;4879333;29;20215;-77
2021/06/19 06:02:40;;;;;;;4.30;2.40;;;20.60;99.90;;;;;;4879020;29;20222;-77
2021/06/19 06:05:07;;;;;;;3.78;1.88;;;20.60;99.90;;;;;;4879454;29;20340;-77
2021/06/19 06:07:34;;;;;;;4.83;2.40;;;20.60;99.90;;;;;;4879182;29;20681;-77
2021/06/19 06:10:01;;;;;;;2.53;1.92;;;20.70;99.90;;;;;;4878706;29;20246;-78
2021/06/19 06:12:28;;;;;;;2.90;1.85;;;20.60;99.90;;;;;;4879344;29;20222;-78
2021/06/19 06:14:56;;;;;;;3.97;1.90;;;20.60;99.90;;;;;;4879156;29;20235;-78
2021/06/19 06:17:23;;;;;;;4.05;2.60;;;20.70;99.90;;;;;;4877450;29;20215;-77
2021/06/19 06:19:49;;;;;;;4.78;1.75;;;20.80;99.90;;;;;;4880064;29;20222;-78
2021/06/19 06:22:16;;;;;;;5.15;2.10;;;20.80;99.90;;;;;;4878897;29;20238;-78
2021/06/19 06:24:43;;;;;;;2.92;2.08;;;20.90;99.90;;;;;;4878606;29;20567;-79
2021/06/19 06:27:10;;;;;;;4.07;2.53;;;20.90;99.90;;;;;;4892043;29;20224;-79
2021/06/19 06:29:37;;;;;;;2.97;1.95;;;20.80;99.90;;;;;;4897320;29;20237;-78
2021/06/19 06:32:06;;;;;;;2.33;1.88;;;20.80;99.90;;;;;;4897852;29;20644;-78
2021/06/19 06:34:33;;;;;;;2.15;1.50;;;20.90;99.90;;;;;;4891159;29;20222;-79
2021/06/19 06:36:59;;;;;;;2.50;1.67;;;21.00;99.90;;;;;;4878942;29;20211;-79
2021/06/19 06:39:26;;;;;;;2.70;1.30;;;21.10;99.90;;;;;;4878463;29;20225;-78
2021/06/19 06:41:54;;;;;;;3.08;1.50;;;21.40;99.90;;;;;;4878965;29;20246;-78
2021/06/19 06:44:21;;;;;;;2.38;1.67;;;21.50;99.90;;;;;;4878835;29;20306;-78
2021/06/19 06:46:48;;;;;;;2.17;1.77;;;21.70;99.90;;;;;;4878321;29;20668;-78
2021/06/19 06:49:17;;;;;;;1.90;1.50;;;21.80;99.90;;;;;;4879212;29;20212;-78
2021/06/19 06:51:44;;;;;;;2.03;1.60;;;21.80;99.90;;;;;;4878751;29;20315;-79
2021/06/19 06:54:10;;;;;;;1.67;1.42;;;21.80;99.90;;;;;;4878910;29;20215;-79
2021/06/19 06:56:37;;;;;;;1.85;1.23;;;22.00;99.90;;;;;;4878302;29;20235;-79
2021/06/19 06:59:04;;;;;;;4.00;1.58;;;22.10;99.90;;;;;;4878861;29;20215;-79
2021/06/19 07:01:31;;;;;;;2.33;1.40;;;22.30;99.90;;;;;;4878623;29;20539;-78
2021/06/19 07:03:59;;;;;;;1.98;1.42;;;22.20;99.90;;;;;;4878226;29;20207;-78
2021/06/19 07:06:28;;;;;;;1.67;1.27;;;22.20;99.90;;;;;;4878611;29;20237;-77
2021/06/19 07:08:55;;;;;;;2.22;1.50;;;22.30;99.90;;;;;;4878503;29;20216;-79
2021/06/19 07:11:22;;;;;;;2.83;1.45;;;22.30;99.90;;;;;;4878122;29;20298;-79
2021/06/19 07:13:49;;;;;;;1.17;1.02;;;22.40;99.90;;;;;;4878255;29;20218;-79
2021/06/19 07:16:15;;;;;;;2.33;1.20;;;22.60;99.90;;;;;;4878192;29;20227;-78
2021/06/19 07:18:42;;;;;;;1.70;1.15;;;23.00;99.90;;;;;;4878686;29;20291;-79
2021/06/19 07:21:09;;;;;;;3.70;1.40;;;23.10;99.90;;;;;;4878965;29;20241;-79
2021/06/19 07:23:38;;;;;;;2.05;1.40;;;23.30;99.90;;;;;;4881904;29;20575;-77
2021/06/19 07:26:04;;;;;;;1.98;1.42;;;23.20;99.90;;;;;;4877542;29;20315;-75
2021/06/19 07:28:31;;;;;;;2.30;1.30;;;23.10;99.90;;;;;;4880666;29;20211;-74
2021/06/19 07:30:58;;;;;;;2.13;1.45;;;23.20;99.90;;;;;;4881327;29;20215;-77
2021/06/19 07:33:25;;;;;;;3.42;1.50;;;23.20;99.90;;;;;;4882363;29;20692;-79
2021/06/19 07:35:54;;;;;;;2.08;1.77;;;23.30;99.90;;;;;;4880048;29;20227;-74
2021/06/19 07:38:21;;;;;;;1.73;1.30;;;23.50;99.90;;;;;;4880474;29;20289;-76
2021/06/19 07:40:50;;;;;;;1.85;1.45;;;23.70;99.90;;;;;;4880067;29;20242;-75
2021/06/19 07:43:17;;;;;;;2.60;1.63;;;23.90;99.90;;;;;;4880124;29;20222;-76
2021/06/19 07:45:43;;;;;;;2.63;1.85;;;24.00;99.90;;;;;;4879956;29;20253;-76
2021/06/19 07:48:10;;;;;;;2.38;1.67;;;23.90;99.90;;;;;;4880485;29;20222;-82
2021/06/19 07:50:39;;;;;;;2.83;1.55;;;23.80;99.90;;;;;;4881677;29;20220;-82
2021/06/19 07:53:05;;;;;;;3.85;1.70;;;23.70;99.90;;;;;;4881612;29;20249;-81
2021/06/19 07:55:32;;;;;;;2.28;1.60;;;24.00;99.90;;;;;;4882308;29;20233;-81
2021/06/19 07:58:00;;;;;;;1.88;1.65;;;23.80;99.90;;;;;;4881342;29;20215;-80
2021/06/19 08:00:29;;;;;;;3.78;1.75;;;23.80;99.90;;;;;;4881671;29;20306;-80
2021/06/19 08:02:56;;;;;;;2.95;1.70;;;23.60;99.90;;;;;;4880734;29;20274;-81
2021/06/19 08:05:23;;;;;;;1.55;1.45;;;23.40;99.90;;;;;;4880391;29;20235;-81
2021/06/19 08:07:50;;;;;;;3.20;1.60;;;23.30;99.90;;;;;;4881294;29;20310;-81
2021/06/19 08:10:17;;;;;;;3.53;1.60;;;23.40;99.90;;;;;;4881205;29;20230;-81
2021/06/19 08:12:43;;;;;;;1.83;1.40;;;23.10;99.90;;;;;;4881236;29;20219;-81
2021/06/19 08:15:13;;;;;;;2.38;1.63;;;23.20;99.90;;;;;;4881072;29;20241;-80
2021/06/19 08:17:40;;;;;;;3.15;1.42;;;23.20;99.90;;;;;;4880909;29;20211;-79
2021/06/19 08:20:08;;;;;;;2.10;1.40;;;23.40;99.90;;;;;;4881024;29;20218;-81
2021/06/19 08:22:35;;;;;;;4.82;1.95;;;23.50;99.90;;;;;;4880841;29;20591;-81
2021/06/19 08:25:02;;;;;;;3.90;1.50;;;23.50;99.90;;;;;;4881503;29;20231;-80
2021/06/19 08:27:29;;;;;;;2.78;1.77;;;23.40;99.90;;;;;;4881285;29;20215;-76
2021/06/19 08:29:59;;;;;;;2.08;1.60;;;23.40;99.90;;;;;;4880968;29;20583;-82
2021/06/19 08:32:28;;;;;;;4.25;1.40;;;23.50;99.90;;;;;;4882050;29;20211;-81
2021/06/19 08:34:54;;;;;;;1.85;1.40;;;23.40;99.90;;;;;;4881500;29;20699;-80
2021/06/19 08:37:21;;;;;;;2.92;1.52;;;23.40;99.90;;;;;;4881987;29;20674;-83
2021/06/19 08:39:48;;;;;;;4.25;1.45;;;23.30;99.90;;;;;;4880882;29;20218;-81
2021/06/19 08:42:15;;;;;;;2.65;1.20;;;23.30;99.90;;;;;;4880506;29;20729;-75
2021/06/19 08:44:45;;;;;;;1.50;1.10;;;23.20;99.90;;;;;;4882564;29;20231;-80
2021/06/19 08:47:13;;;;;;;1.65;1.15;;;23.40;99.90;;;;;;4881856;29;20229;-79
2021/06/19 08:49:42;;;;;;;1.50;1.20;;;23.50;99.90;;;;;;4882237;29;20207;-79
2021/06/19 08:52:09;;;;;;;2.28;1.45;;;23.70;99.90;;;;;;4881146;29;20350;-78
2021/06/19 08:54:39;;;;;;;5.32;1.40;;;23.80;99.90;;;;;;4880023;29;20571;-78
2021/06/19 08:57:08;;;;;;;1.90;1.33;;;23.90;99.90;;;;;;4881003;29;20215;-82
2021/06/19 08:59:36;;;;;;;1.70;1.00;;;23.90;99.90;;;;;;4880912;29;20207;-80
2021/06/19 09:02:03;;;;;;;1.48;1.20;;;23.50;99.90;;;;;;4863924;29;20238;-78
2021/06/19 09:04:30;;;;;;;2.35;1.08;;;23.50;99.90;;;;;;4880591;29;20215;-77
2021/06/19 09:06:58;;;;;;;1.50;1.17;;;23.60;99.90;;;;;;4880517;29;20306;-77
2021/06/19 09:09:25;;;;;;;1.50;1.10;;;23.70;99.90;;;;;;4881302;29;20298;-81
2021/06/19 09:11:53;;;;;;;1.23;0.80;;;23.70;99.90;;;;;;4881420;29;20685;-82
2021/06/19 09:14:21;;;;;;;0.90;0.80;;;23.50;99.90;;;;;;4881122;29;20305;-81
2021/06/19 09:16:58;;;;;;;1.58;0.70;;;23.30;99.90;;;;;;4881877;29;20303;-82
2021/06/19 09:19:28;;;;;;;1.23;0.80;;;23.10;99.90;;;;;;4884062;29;20738;-80
2021/06/19 09:22:16;;;;;;;0.80;0.70;;;23.30;99.90;;;;;;4882689;29;20593;-81
2021/06/19 09:24:46;;;;;;;1.30;0.70;;;23.20;99.90;;;;;;4881695;29;20806;-81
2021/06/19 09:27:32;;;;;;;1.77;1.00;;;23.20;99.90;;;;;;4882129;29;20233;-82
2021/06/19 09:30:14;;;;;;;1.20;0.82;;;23.40;99.90;;;;;;4881380;29;20306;-81
2021/06/19 09:32:42;;;;;;;1.15;0.70;;;23.30;99.90;;;;;;4879872;29;20211;-81
2021/06/19 09:35:14;;;;;;;1.05;0.68;;;23.10;99.90;;;;;;4879823;29;20231;-80
2021/06/19 09:37:44;;;;;;;0.75;0.60;;;23.20;99.90;;;;;;4879984;29;20697;-80
2021/06/19 09:40:21;;;;;;;0.77;0.65;;;23.30;99.90;;;;;;4879868;29;20238;-80
2021/06/19 09:42:48;;;;;;;1.00;0.60;;;23.30;99.90;;;;;;4879938;29;20401;-78
2021/06/19 09:45:19;;;;;;;1.70;0.88;;;23.30;99.90;;;;;;4879140;29;20231;-81
2021/06/19 09:47:46;;;;;;;1.02;0.80;;;23.20;99.90;;;;;;4879704;29;20207;-80
2021/06/19 09:50:13;;;;;;;0.90;0.80;;;23.30;99.90;;;;;;4879615;29;20211;-77
2021/06/19 09:52:40;;;;;;;1.25;0.75;;;23.40;99.90;;;;;;4879716;29;20215;-82
2021/06/19 09:55:13;;;;;;;1.50;0.70;;;23.40;99.90;;;;;;4879435;29;20238;-75
2021/06/19 09:57:41;;;;;;;2.80;0.85;;;23.40;99.90;;;;;;4879531;29;20662;-82
2021/06/19 10:00:10;;;;;;;1.17;0.70;;;23.30;99.90;;;;;;4879289;29;20219;-81
2021/06/19 10:02:37;;;;;;;1.13;0.80;;;23.50;99.90;;;;;;4879539;29;20732;-81
2021/06/19 10:05:04;;;;;;;1.30;0.90;;;23.70;99.90;;;;;;4879606;29;20227;-81
2021/06/19 10:07:32;;;;;;;1.10;0.90;;;23.80;99.90;;;;;;4879411;29;20211;-82
2021/06/19 10:10:01;;;;;;;1.10;0.88;;;23.70;99.90;;;;;;4879293;29;20667;-81
2021/06/19 10:12:31;;;;;;;1.55;0.82;;;23.70;99.90;;;;;;4879451;29;20211;-81
2021/06/19 10:15:00;;;;;;;1.25;0.80;;;23.70;99.90;;;;;;4879361;29;20302;-82
2021/06/19 10:17:31;;;;;;;1.13;0.93;;;23.90;99.90;;;;;;4879319;29;20218;-79
2021/06/19 10:20:00;;;;;;;1.33;1.00;;;23.90;99.90;;;;;;4879100;29;20607;-80
2021/06/19 10:22:28;;;;;;;1.42;0.90;;;24.00;99.90;;;;;;4879158;29;20722;-80
2021/06/19 10:24:56;;;;;;;2.75;0.85;;;24.30;99.90;;;;;;4878892;29;20726;-81
2021/06/19 10:27:28;;;;;;;0.95;0.85;;;24.20;99.90;;;;;;4893143;29;20211;-82
2021/06/19 10:29:58;;;;;;;1.10;1.00;;;23.90;99.90;;;;;;4879334;29;20215;-82
2021/06/19 10:32:41;;;;;;;2.90;1.17;;;23.70;99.90;;;;;;4878981;29;20226;-81
2021/06/19 10:35:09;;;;;;;1.30;1.00;;;23.80;99.90;;;;;;4877596;29;20727;-82
2021/06/19 10:37:36;;;;;;;1.67;1.10;;;23.80;99.90;;;;;;4878836;29;20240;-82
2021/06/19 10:40:19;;;;;;;1.17;0.90;;;23.90;99.90;;;;;;4879114;29;20223;-81
2021/06/19 10:42:46;;;;;;;1.73;1.00;;;24.20;99.90;;;;;;4878213;29;20242;-81
2021/06/19 10:45:24;;;;;;;1.15;0.85;;;24.10;99.90;;;;;;4879028;29;20234;-80
2021/06/19 10:48:02;;;;;;;1.63;0.90;;;24.10;99.90;;;;;;4879027;29;20262;-79
2021/06/19 10:50:30;;;;;;;2.08;1.10;;;23.90;99.90;;;;;;4878891;29;20219;-80
2021/06/19 10:53:08;;;;;;;1.02;0.82;;;23.70;99.90;;;;;;4879029;29;20765;-81
2021/06/19 10:55:51;;;;;;;1.67;1.20;;;23.80;99.90;;;;;;4878878;29;20242;-81
2021/06/19 10:58:20;;;;;;;2.13;1.23;;;23.90;99.90;;;;;;4882690;29;20294;-82
2021/06/19 11:00:50;;;;;;;3.05;1.05;;;24.10;99.90;;;;;;4882868;29;20237;-82
2021/06/19 11:03:19;;;;;;;3.30;1.77;;;24.20;99.90;;;;;;4882573;29;20242;-81
2021/06/19 11:05:57;;;;;;;1.73;1.05;;;24.30;99.90;;;;;;4882478;29;20235;-82
2021/06/19 11:08:24;;;;;;;1.63;1.15;;;24.30;99.90;;;;;;4882796;29;20206;-80
2021/06/19 11:10:58;;;;;;;1.48;1.10;;;24.20;99.90;;;;;;4882198;29;20227;-81
2021/06/19 11:13:48;;;;;;;1.60;1.30;;;24.30;99.90;;;;;;4882747;29;20210;-82
2021/06/19 11:16:53;;;;;;;1.67;1.20;;;24.40;99.90;;;;;;4882289;29;20227;-81
2021/06/19 11:19:46;;;;;;;1.58;0.90;;;24.70;99.90;;;;;;4882164;29;20218;-81
2021/06/19 11:22:30;;;;;;;1.40;1.10;;;24.90;99.90;;;;;;4882300;29;20566;-81
2021/06/19 11:25:25;;;;;;;1.88;1.00;;;24.90;99.90;;;;;;4882060;29;20231;-81
2021/06/19 11:27:58;;;;;;;1.48;1.00;;;25.20;99.90;;;;;;4882277;29;20211;-82
2021/06/19 11:30:40;;;;;;;2.40;0.93;;;25.20;99.90;;;;;;4882246;29;20311;-80
2021/06/19 11:33:42;;;;;;;2.13;1.58;;;25.50;99.90;;;;;;4882088;29;20259;-81
2021/06/19 11:36:36;;;;;;;1.27;0.95;;;25.90;99.90;;;;;;4882867;29;20234;-80
2021/06/19 11:39:15;;;;;;;1.88;1.15;;;26.20;99.90;;;;;;4881832;29;20223;-80
2021/06/19 11:41:47;;;;;;;1.88;1.08;;;26.50;99.90;;;;;;4881593;29;20334;-79
2021/06/19 11:44:18;;;;;;;1.65;1.08;;;26.80;99.90;;;;;;4881449;29;20702;-76
2021/06/19 11:46:52;;;;;;;1.58;1.05;;;27.00;99.90;;;;;;4881934;29;20211;-75
2021/06/19 11:49:25;;;;;;;1.48;1.10;;;26.80;99.90;;;;;;4881789;29;20210;-82
2021/06/19 11:51:53;;;;;;;1.63;1.08;;;26.40;99.90;;;;;;4882315;29;20248;-76
2021/06/19 11:54:19;;;;;;;1.80;1.45;;;25.90;99.90;;;;;;4881132;29;20234;-74
2021/06/19 11:56:47;;;;;;;1.38;1.10;;;25.50;99.90;;;;;;4880939;29;20674;-81
2021/06/19 11:59:15;;;;;;;1.63;1.20;;;25.20;99.90;;;;;;4881887;29;20211;-81
2021/06/19 12:01:44;;;;;;;3.55;2.08;;;24.90;99.90;;;;;;4881763;29;20294;-80
2021/06/19 12:04:13;;;;;;;2.75;2.10;;;24.90;99.90;;;;;;4881489;29;20599;-75
2021/06/19 12:06:43;;;;;;;3.70;2.35;;;24.90;99.90;;;;;;4881329;29;20303;-72
2021/06/19 12:09:11;;;;;;;2.45;1.90;;;25.00;99.90;;;;;;4879977;29;20211;-81
2021/06/19 12:11:40;;;;;;;3.08;1.70;;;25.00;99.90;;;;;;4881370;29;20241;-76
2021/06/19 12:14:20;;;;;;;2.60;1.55;;;25.00;99.90;;;;;;4880941;29;20215;-73
2021/06/19 12:16:50;;;;;;;1.58;1.48;;;24.90;99.90;;;;;;4880366;29;20217;-75
2021/06/19 12:19:18;;;;;;;3.13;1.42;;;25.00;99.90;;;;;;4880278;29;20670;-73
2021/06/19 12:21:47;;;;;;;3.05;1.95;;;24.90;99.90;;;;;;4880706;29;20207;-78
2021/06/19 12:24:26;;;;;;;1.90;1.70;;;25.00;99.90;;;;;;4881096;29;20598;-79
2021/06/19 12:27:08;;;;;;;1.88;1.60;;;24.90;99.90;;;;;;4881065;29;20686;-74
2021/06/19 12:29:37;;;;;;;2.22;1.80;;;24.90;99.90;;;;;;4880823;29;20219;-74
2021/06/19 12:32:22;;;;;;;3.60;1.75;;;25.20;99.90;;;;;;4880513;29;20671;-74
2021/06/19 12:34:50;;;;;;;3.20;2.10;;;25.00;99.90;;;;;;4880694;29;20256;-73
2021/06/19 12:37:22;;;;;;;3.83;1.80;;;25.00;99.90;;;;;;4881142;29;20236;-74
2021/06/19 12:39:49;;;;;;;2.70;1.80;;;25.00;99.90;;;;;;4880782;29;20590;-79
2021/06/19 12:42:40;;;;;;;2.55;1.80;;;25.00;99.90;;;;;;4880588;29;20211;-73
2021/06/19 12:45:16;;;;;;;2.05;1.60;;;25.00;99.90;;;;;;4880855;29;20235;-76
2021/06/19 12:47:45;;;;;;;4.10;2.35;;;25.20;99.90;;;;;;4880676;29;20578;-73
2021/06/19 12:50:15;;;;;;;3.22;2.20;;;25.20;99.90;;;;;;4880322;29;20211;-74
2021/06/19 12:52:59;;;;;;;3.55;2.40;;;25.50;99.90;;;;;;4880114;29;20671;-76
2021/06/19 12:55:27;;;;;;;3.83;2.45;;;25.50;99.90;;;;;;4879362;29;20631;-73
2021/06/19 12:58:05;;;;;;;4.47;2.53;;;25.80;99.90;;;;;;4880296;29;20211;-73
2021/06/19 13:00:40;;;;;;;4.05;2.28;;;25.50;99.90;;;;;;4880172;29;20207;-78
2021/06/19 13:03:08;;;;;;;4.75;2.88;;;25.70;99.90;;;;;;4880128;29;20235;-76
2021/06/19 13:05:46;;;;;;;3.33;2.33;;;25.90;99.90;;;;;;4879920;29;20227;-75
2021/06/19 13:08:16;;;;;;;4.15;2.92;;;25.80;99.90;;;;;;4880503;29;20218;-75
2021/06/19 13:10:43;;;;;;;4.82;2.70;;;25.80;99.90;;;;;;4880159;29;20239;-75
2021/06/19 13:13:10;;;;;;;3.70;2.38;;;25.80;99.90;;;;;;4880003;29;20226;-74
2021/06/19 13:15:37;;;;;;;4.53;3.28;;;25.90;99.90;;;;;;4879746;29;20235;-74
2021/06/19 13:18:14;;;;;;;4.43;2.88;;;25.70;99.90;;;;;;4879790;29;20578;-77
2021/06/19 13:20:41;;;;;;;3.33;2.70;;;25.80;99.90;;;;;;4880079;29;20211;-78
2021/06/19 13:23:11;;;;;;;3.22;2.47;;;25.80;99.90;;;;;;4880457;29;20702;-74
2021/06/19 13:25:54;;;;;;;3.97;2.70;;;25.80;99.90;;;;;;4880275;29;20238;-76
2021/06/19 13:28:45;;;;;;;4.07;2.83;;;25.80;99.90;;;;;;4879720;29;20293;-74
2021/06/19 13:31:15;;;;;;;3.38;2.40;;;25.90;99.90;;;;;;4879959;29;20222;-81
2021/06/19 13:33:44;;;;;;;3.90;2.72;;;25.90;99.90;;;;;;4880057;29;20215;-73
2021/06/19 13:36:23;;;;;;;21.00;3.28;;;25.80;99.90;;;;;;4880819;29;20235;-81
2021/06/19 13:38:59;;;;;;;6.55;2.55;;;25.90;99.90;;;;;;4879658;29;20230;-81
2021/06/19 13:41:42;;;;;;;3.85;2.95;;;26.00;99.90;;;;;;4879623;29;20575;-81
2021/06/19 13:44:12;;;;;;;6.97;3.13;;;26.20;99.90;;;;;;4879616;29;20242;-80
2021/06/19 13:46:40;;;;;;;3.60;2.92;;;26.20;99.90;;;;;;4880301;29;20231;-79
2021/06/19 13:49:07;;;;;;;4.30;3.03;;;26.10;99.90;;;;;;4879512;29;20211;-80
2021/06/19 13:51:34;;;;;;;4.72;3.45;;;25.70;99.90;;;;;;4879481;29;20583;-82
2021/06/19 13:54:03;;;;;;;3.50;2.50;;;25.40;99.90;;;;;;4879457;29;20230;-81
2021/06/19 13:56:32;;;;;;;2.95;2.38;;;25.40;99.90;;;;;;4879405;29;20227;-76
2021/06/19 13:58:59;;;;;;;4.28;2.60;;;25.40;99.90;;;;;;4879685;29;20667;-80
2021/06/19 14:01:27;;;;;;;6.03;3.75;;;25.40;99.90;;;;;;4879233;29;20222;-82
2021/06/19 14:03:54;;;;;;;6.32;3.85;;;25.30;99.90;;;;;;4879044;29;20259;-77
2021/06/19 14:06:21;;;;;;;5.20;3.55;;;25.10;99.90;;;;;;4879249;29;20234;-82
2021/06/19 14:08:49;;;;;;;5.30;3.65;;;24.80;99.90;;;;;;4879271;29;20215;-81
2021/06/19 14:11:18;;;;;;;5.30;3.47;;;24.40;99.90;;;;;;4879006;29;20226;-80
2021/06/19 14:13:47;;;;;;;5.82;3.55;;;24.30;99.90;;;;;;4879032;29;20211;-79
2021/06/19 14:16:14;;;;;;;6.95;3.90;;;24.30;99.90;;;;;;4878827;29;20231;-78
2021/06/19 14:18:41;;;;;;;4.60;3.17;;;24.00;99.90;;;;;;4878968;29;20685;-80
2021/06/19 14:21:09;;;;;;;5.75;3.53;;;24.20;99.90;;;;;;4879212;29;20217;-81
2021/06/19 14:23:38;;;;;;;6.00;3.67;;;24.40;99.90;;;;;;4878875;29;20235;-78
2021/06/19 14:26:07;;;;;;;5.80;3.90;;;24.50;99.90;;;;;;4878592;29;20231;-79
2021/06/19 14:28:34;;;;;;;5.25;3.60;;;24.50;99.90;;;;;;4878639;29;20603;-80
2021/06/19 14:31:02;;;;;;;5.13;3.60;;;24.40;99.90;;;;;;4878970;29;20211;-78
2021/06/19 14:33:29;;;;;;;5.68;4.18;;;24.50;99.90;;;;;;4882978;29;20211;-81
2021/06/19 14:35:56;;;;;;;6.45;3.97;;;24.50;99.90;;;;;;4882761;29;20235;-75
2021/06/19 14:38:23;;;;;;;6.15;4.07;;;24.70;99.90;;;;;;4882619;29;20214;-72
2021/06/19 14:40:50;;;;;;;8.48;4.03;;;24.60;99.90;;;;;;4882380;29;20207;-75
2021/06/19 14:43:17;;;;;;;7.43;4.32;;;24.40;99.90;;;;;;4882406;29;20241;-72
2021/06/19 14:45:44;;;;;;;8.02;4.57;;;24.20;99.90;;;;;;4882374;29;20239;-73
2021/06/19 14:48:14;;;;;;;6.32;4.03;;;23.90;99.90;;;;;;4882673;29;20215;-73
2021/06/19 14:50:41;;;;;;;7.18;4.28;;;23.80;99.90;;;;;;4882520;29;20217;-75
2021/06/19 14:53:08;;;;;;;5.70;4.18;;;23.50;99.90;;;;;;4882547;29;20212;-73
2021/06/19 14:55:36;;;;;;;6.00;4.05;;;23.60;99.90;;;;;;4882129;29;20242;-73
2021/06/19 14:58:03;;;;;;;6.57;4.25;;;23.70;99.90;;;;;;4882515;29;20569;-77
2021/06/19 15:00:30;;;;;;;6.13;4.28;;;23.70;99.90;;;;;;4882569;29;20222;-73
2021/06/19 15:02:57;;;;;;;6.10;3.60;;;23.80;99.90;;;;;;4882450;29;20218;-75
2021/06/19 15:05:25;;;;;;;5.57;3.92;;;23.80;99.90;;;;;;4882263;29;20249;-73
2021/06/19 15:07:52;;;;;;;4.93;3.40;;;23.70;99.90;;;;;;4882262;29;20218;-73
2021/06/19 15:10:19;;;;;;;6.60;3.35;;;23.80;99.90;;;;;;4882524;29;20217;-74
2021/06/19 15:12:47;;;;;;;8.63;4.07;;;23.70;99.90;;;;;;4882167;29;20707;-73
2021/06/19 15:15:16;;;;;;;4.93;3.80;;;23.70;99.90;;;;;;4882407;29;20245;-74
2021/06/19 15:17:43;;;;;;;5.22;3.70;;;23.40;99.90;;;;;;4882211;29;20211;-76
2021/06/19 15:20:12;;;;;;;6.00;4.20;;;23.40;99.90;;;;;;4882082;29;20208;-75
2021/06/19 15:22:40;;;;;;;4.65;3.40;;;23.30;99.90;;;;;;4881818;29;20233;-78
2021/06/19 15:25:09;;;;;;;5.68;3.00;;;23.40;99.90;;;;;;4881966;29;20266;-75
2021/06/19 15:27:36;;;;;;;4.72;3.53;;;23.50;99.90;;;;;;4882195;29;20598;-75
2021/06/19 15:30:03;;;;;;;5.60;3.08;;;23.60;99.90;;;;;;4883060;29;20211;-80
2021/06/19 15:32:30;;;;;;;5.32;3.35;;;23.70;99.90;;;;;;4882370;29;20212;-79
2021/06/19 15:34:57;;;;;;;3.72;2.78;;;23.90;99.90;;;;;;4882774;29;20238;-81
2021/06/19 15:37:25;;;;;;;8.52;4.00;;;23.90;99.90;;;;;;4882241;29;20207;-81
2021/06/19 15:39:53;;;;;;;6.00;4.30;;;23.90;99.90;;;;;;4881478;29;20659;-80
2021/06/19 15:42:20;;;;;;;5.25;3.50;;;23.80;99.90;;;;;;4881969;29;20211;-80
2021/06/19 15:44:47;;;;;;;5.50;3.83;;;23.60;99.90;;;;;;4881633;29;20249;-79
2021/06/19 15:47:14;;;;;;;5.05;3.38;;;23.30;99.90;;;;;;4881634;29;20221;-81
2021/06/19 15:49:41;;;;;;;6.75;3.40;;;23.20;99.90;;;;;;4881485;29;20211;-81
2021/06/19 15:52:11;;;;;;;4.65;3.50;;;23.20;99.90;;;;;;4881490;29;20221;-80
2021/06/19 15:54:38;;;;;;;5.55;3.55;;;23.20;99.90;;;;;;4881346;29;20685;-80
2021/06/19 15:57:07;;;;;;;5.65;3.75;;;23.30;99.90;;;;;;4881470;29;20667;-80
2021/06/19 15:59:34;;;;;;;5.57;3.58;;;22.90;99.90;;;;;;4881388;29;20207;-81
2021/06/19 16:02:01;;;;;;;3.97;3.13;;;23.00;99.90;;;;;;4881637;29;20218;-80
2021/06/19 16:04:28;;;;;;;5.75;3.45;;;23.10;99.90;;;;;;4881188;29;20243;-79
2021/06/19 16:06:55;;;;;;;4.72;3.33;;;23.00;99.90;;;;;;4881476;29;20233;-80
2021/06/19 16:09:22;;;;;;;5.38;3.92;;;23.00;99.90;;;;;;4881330;29;20218;-80
2021/06/19 16:11:49;;;;;;;6.78;3.80;;;23.10;99.90;;;;;;4881081;29;20675;-79
2021/06/19 16:14:17;;;;;;;5.40;3.47;;;23.30;99.90;;;;;;4881020;29;20218;-80
2021/06/19 16:16:44;;;;;;;5.05;3.58;;;23.30;99.90;;;;;;4880922;29;20232;-81
2021/06/19 16:19:11;;;;;;;5.88;3.90;;;23.20;99.90;;;;;;4880885;29;20219;-81
2021/06/19 16:21:38;;;;;;;6.38;3.63;;;23.40;99.90;;;;;;4880966;29;20211;-81
2021/06/19 16:24:06;;;;;;;4.43;3.08;;;23.50;99.90;;;;;;4881116;29;20242;-81
2021/06/19 16:26:33;;;;;;;4.85;3.30;;;23.70;99.90;;;;;;4880957;29;20241;-82
2021/06/19 16:29:00;;;;;;;5.80;3.58;;;23.80;99.90;;;;;;4881607;29;20247;-82
2021/06/19 16:31:28;;;;;;;4.32;3.10;;;23.70;99.90;;;;;;4881557;29;20218;-78
2021/06/19 16:33:56;;;;;;;4.35;2.85;;;23.60;99.90;;;;;;4880725;29;20667;-82
2021/06/19 16:36:23;;;;;;;3.83;2.97;;;23.60;99.90;;;;;;4881115;29;20239;-80
2021/06/19 16:38:50;;;;;;;4.47;3.55;;;23.10;99.90;;;;;;4880836;29;20231;-81
2021/06/19 16:41:17;;;;;;;4.68;3.15;;;22.80;99.90;;;;;;4880677;29;20219;-80
2021/06/19 16:43:44;;;;;;;4.50;3.53;;;22.60;99.90;;;;;;4880460;29;20222;-80
2021/06/19 16:46:11;;;;;;;3.53;3.03;;;22.60;99.90;;;;;;4880398;29;20235;-81
2021/06/19 16:48:39;;;;;;;5.18;3.42;;;22.70;99.90;;;;;;4880475;29;20222;-82
2021/06/19 16:51:06;;;;;;;7.60;4.05;;;22.70;99.90;;;;;;4880385;29;20662;-79
2021/06/19 16:53:33;;;;;;;5.20;3.88;;;22.80;99.90;;;;;;4880247;29;20675;-81
2021/06/19 16:55:59;;;;;;;5.38;4.00;;;22.80;99.90;;;;;;4879899;29;20246;-80
2021/06/19 16:58:26;;;;;;;5.97;4.05;;;22.70;99.90;;;;;;4880448;29;20215;-80
2021/06/19 17:00:53;;;;;;;5.45;3.20;;;22.70;99.90;;;;;;4880207;29;20215;-80
2021/06/19 17:03:20;;;;;;;6.95;4.10;;;22.70;99.90;;;;;;4880464;29;20554;-79
2021/06/19 17:05:48;;;;;;;5.53;3.88;;;22.60;99.90;;;;;;4880110;29;20302;-83
2021/06/19 17:08:15;;;;;;;6.72;3.60;;;22.70;99.90;;;;;;4880055;29;20215;-80
2021/06/19 17:10:42;;;;;;;4.90;3.40;;;22.80;99.90;;;;;;4880117;29;20727;-80
2021/06/19 17:13:09;;;;;;;5.43;3.75;;;22.60;99.90;;;;;;4880233;29;20219;-80
2021/06/19 17:15:36;;;;;;;8.57;4.25;;;22.50;99.90;;;;;;4879950;29;20231;-81
2021/06/19 17:18:03;;;;;;;4.95;3.50;;;22.30;99.90;;;;;;4880206;29;20211;-78
2021/06/19 17:20:30;;;;;;;5.95;4.25;;;22.20;99.90;;;;;;4879808;29;20670;-76
2021/06/19 17:22:59;;;;;;;6.10;4.57;;;22.00;99.90;;;;;;4880104;29;20675;-75
2021/06/19 17:25:25;;;;;;;6.13;4.22;;;22.10;99.90;;;;;;4879634;29;20243;-79
2021/06/19 17:27:52;;;;;;;9.30;5.03;;;22.20;99.90;;;;;;4879789;29;20203;-82
2021/06/19 17:30:20;;;;;;;6.47;5.00;;;22.40;99.90;;;;;;4879746;29;20221;-81
2021/06/19 17:32:47;;;;;;;9.23;5.90;;;22.40;99.90;;;;;;4879855;29;20215;-81
2021/06/19 17:35:14;;;;;;;10.38;5.85;;;22.40;99.90;;;;;;4880356;29;20235;-79
2021/06/19 17:37:41;;;;;;;11.02;6.13;;;22.40;99.90;;;;;;4879448;29;20211;-79
2021/06/19 17:40:11;;;;;;;10.65;5.97;;;22.30;99.90;;;;;;4879564;29;20218;-81
2021/06/19 17:42:38;;;;;;;10.05;6.68;;;22.30;99.90;;;;;;4879547;29;20302;-80
2021/06/19 17:45:06;;;;;;;11.02;7.00;;;22.30;99.90;;;;;;4879672;29;20239;-79
2021/06/19 17:47:33;;;;;;;10.15;6.82;;;22.50;99.90;;;;;;4879669;29;20217;-81
2021/06/19 17:50:00;;;;;;;11.30;6.68;;;22.50;99.90;;;;;;4879582;29;20211;-82
2021/06/19 17:52:27;;;;;;;11.82;7.72;;;22.80;99.90;;;;;;4880567;29;20213;-81
2021/06/19 17:54:54;;;;;;;12.20;7.35;;;22.80;99.90;;;;;;4880302;29;20322;-81
2021/06/19 17:57:25;;;;;;;10.35;6.78;;;22.60;99.90;;;;;;4879878;29;20214;-81
2021/06/19 17:59:56;;;;;;;13.82;7.38;;;22.70;99.90;;;;;;4880393;29;20674;-82
2021/06/19 18:02:27;;;;;;;11.05;6.80;;;22.60;99.90;;;;;;4880243;29;20217;-81
2021/06/19 18:04:54;;;;;;;11.52;7.57;;;22.70;99.90;;;;;;4879906;29;20321;-81
2021/06/19 18:07:21;;;;;;;13.18;7.30;;;22.70;99.90;;;;;;4878960;29;20219;-81
2021/06/19 18:09:48;;;;;;;13.50;7.45;;;22.50;99.90;;;;;;4879982;29;20207;-81
2021/06/19 18:12:15;;;;;;;12.38;7.47;;;22.40;99.90;;;;;;4879977;29;20647;-82
2021/06/19 18:14:45;;;;;;;11.45;7.45;;;22.20;99.90;;;;;;4880272;29;20293;-80
2021/06/19 18:17:12;;;;;;;12.55;7.53;;;22.30;99.90;;;;;;4880803;29;20239;-81
2021/06/19 18:19:39;;;;;;;11.55;7.55;;;22.30;99.90;;;;;;4880339;29;20222;-81
2021/06/19 18:22:06;;;;;;;13.02;7.57;;;22.20;99.90;;;;;;4880035;29;20218;-81
2021/06/19 18:24:32;;;;;;;14.52;8.23;;;22.00;99.90;;;;;;4880049;29;20239;-81
2021/06/19 18:26:59;;;;;;;14.80;8.20;;;21.90;99.90;;;;;;4880334;29;20633;-81
2021/06/19 18:29:26;;;;;;;11.30;7.05;;;21.80;99.90;;;;;;4880258;29;20319;-80
2021/06/19 18:31:55;;;;;;;16.90;8.38;;;21.70;99.90;;;;;;4880653;29;20207;-79
2021/06/19 18:34:21;;;;;;;16.02;9.10;;;21.60;99.90;;;;;;4880621;29;20211;-80
2021/06/19 18:36:48;;;;;;;16.90;9.05;;;21.60;99.90;;;;;;4880349;29;20211;-80